createdAt,value
2018-10-09T00:00:47.825Z,0
2018-10-09T00:01:48.555Z,0
2018-10-09T00:02:49.733Z,0
2018-10-09T00:03:50.450Z,0
2018-10-09T00:04:51.577Z,0
2018-10-09T00:05:52.333Z,0
2018-10-09T00:06:53.095Z,0
2018-10-09T00:07:54.227Z,0
2018-10-09T00:08:54.950Z,0
2018-10-09T00:09:55.823Z,0
2018-10-09T00:10:56.658Z,0
2018-10-09T00:11:57.744Z,0
2018-10-09T00:12:58.480Z,0
2018-10-09T00:13:59.270Z,0
2018-10-09T00:15:00.005Z,0
2018-10-09T00:16:00.922Z,0
2018-10-09T00:17:02.158Z,0
2018-10-09T00:18:02.981Z,0
2018-10-09T00:19:03.692Z,0
2018-10-09T00:20:04.402Z,0
2018-10-09T00:21:05.133Z,0
2018-10-09T00:22:05.854Z,0
2018-10-09T00:23:06.567Z,0
2018-10-09T00:24:07.294Z,0
2018-10-09T00:25:08.040Z,0
2018-10-09T00:26:08.861Z,0
2018-10-09T00:27:09.504Z,0
2018-10-09T00:28:10.237Z,0
2018-10-09T00:29:10.957Z,0
2018-10-09T00:30:11.675Z,0
2018-10-09T00:31:12.385Z,0
2018-10-09T00:32:13.116Z,0
2018-10-09T00:33:13.848Z,0
2018-10-09T00:34:14.553Z,0
2018-10-09T00:35:15.514Z,0
2018-10-09T00:36:16.537Z,0
2018-10-09T00:37:17.237Z,0
2018-10-09T00:38:18.211Z,0
2018-10-09T00:39:18.928Z,0
2018-10-09T00:40:19.649Z,0
2018-10-09T00:41:20.368Z,0
2018-10-09T00:42:21.082Z,0
2018-10-09T00:43:21.797Z,0
2018-10-09T00:44:22.521Z,0
2018-10-09T00:45:23.234Z,0
2018-10-09T00:46:23.947Z,0
2018-10-09T00:47:24.662Z,0
2018-10-09T00:48:25.366Z,0
2018-10-09T00:49:26.087Z,0
2018-10-09T00:50:26.798Z,0
2018-10-09T00:51:27.528Z,0
2018-10-09T00:52:28.240Z,0
2018-10-09T00:53:28.958Z,0
2018-10-09T00:54:29.692Z,0
2018-10-09T00:55:30.468Z,0
2018-10-09T00:56:31.190Z,0
2018-10-09T00:57:31.900Z,0
2018-10-09T00:58:32.613Z,0
2018-10-09T00:59:33.332Z,0
2018-10-09T01:00:34.096Z,0
2018-10-09T01:01:34.814Z,0
2018-10-09T01:02:35.777Z,0
2018-10-09T01:03:36.750Z,0
2018-10-09T01:04:37.458Z,0
2018-10-09T01:05:38.580Z,0
2018-10-09T01:06:39.303Z,0
2018-10-09T01:07:40.022Z,0
2018-10-09T01:08:40.742Z,0
2018-10-09T01:09:41.473Z,0
2018-10-09T01:10:42.182Z,0
2018-10-09T01:11:42.935Z,0
2018-10-09T01:12:43.917Z,0
2018-10-09T01:13:44.618Z,0
2018-10-09T01:14:45.329Z,0
2018-10-09T01:15:46.050Z,0
2018-10-09T01:16:47.331Z,0
2018-10-09T01:17:48.038Z,0
2018-10-09T01:18:48.753Z,0
2018-10-09T01:19:49.455Z,0
2018-10-09T01:20:50.175Z,0
2018-10-09T01:21:50.891Z,0
2018-10-09T01:22:51.605Z,0
2018-10-09T01:23:52.576Z,0
2018-10-09T01:24:53.552Z,0
2018-10-09T01:25:54.281Z,0
2018-10-09T01:26:54.985Z,0
2018-10-09T01:27:55.753Z,0
2018-10-09T01:28:56.463Z,0
2018-10-09T01:29:57.418Z,0
2018-10-09T01:30:58.138Z,0
2018-10-09T01:31:58.872Z,0
2018-10-09T01:32:59.589Z,0
2018-10-09T01:34:02.239Z,0
2018-10-09T01:35:02.942Z,0
2018-10-09T01:36:03.655Z,0
2018-10-09T01:37:04.613Z,0
2018-10-09T01:38:05.665Z,0
2018-10-09T01:39:06.370Z,0
2018-10-09T01:40:07.079Z,0
2018-10-09T01:41:07.817Z,0
2018-10-09T01:42:08.532Z,0
2018-10-09T01:43:09.258Z,0
2018-10-09T01:44:09.968Z,0
2018-10-09T01:45:10.980Z,0
2018-10-09T01:46:11.688Z,0
2018-10-09T01:47:12.648Z,0
2018-10-09T01:48:13.366Z,0
2018-10-09T01:49:14.079Z,0
2018-10-09T01:50:14.802Z,0
2018-10-09T01:51:15.763Z,0
2018-10-09T01:52:16.474Z,0
2018-10-09T01:53:17.193Z,0
2018-10-09T01:54:17.906Z,0
2018-10-09T01:55:18.686Z,0
2018-10-09T01:56:19.402Z,0
2018-10-09T01:57:20.117Z,0
2018-10-09T01:58:20.836Z,0
2018-10-09T01:59:21.560Z,0
2018-10-09T02:00:22.281Z,0
2018-10-09T02:01:22.987Z,0
2018-10-09T02:02:23.945Z,0
2018-10-09T02:03:24.669Z,0
2018-10-09T02:04:25.392Z,0
2018-10-09T02:05:26.104Z,0
2018-10-09T02:06:26.825Z,0
2018-10-09T02:07:27.541Z,0
2018-10-09T02:08:28.302Z,0
2018-10-09T02:09:29.292Z,0
2018-10-09T02:10:30.012Z,0
2018-10-09T02:11:30.717Z,0
2018-10-09T02:12:31.433Z,0
2018-10-09T02:13:32.154Z,0
2018-10-09T02:14:32.854Z,0
2018-10-09T02:15:33.573Z,0
2018-10-09T02:16:34.284Z,0
2018-10-09T02:17:34.997Z,0
2018-10-09T02:18:35.714Z,0
2018-10-09T02:19:36.436Z,0
2018-10-09T02:20:37.157Z,0
2018-10-09T02:21:37.866Z,0
2018-10-09T02:22:38.584Z,0
2018-10-09T02:23:39.287Z,0
2018-10-09T02:24:39.998Z,0
2018-10-09T02:25:40.714Z,0
2018-10-09T02:26:41.451Z,0
2018-10-09T02:27:42.167Z,0
2018-10-09T02:28:42.908Z,0
2018-10-09T02:29:43.622Z,0
2018-10-09T02:30:44.335Z,0
2018-10-09T02:31:45.052Z,0
2018-10-09T02:32:45.762Z,0
2018-10-09T02:33:46.600Z,0
2018-10-09T02:34:47.208Z,0
2018-10-09T02:35:47.918Z,0
2018-10-09T02:36:48.628Z,0
2018-10-09T02:37:49.345Z,0
2018-10-09T02:38:50.060Z,0
2018-10-09T02:39:50.781Z,0
2018-10-09T02:40:51.490Z,0
2018-10-09T02:41:52.226Z,0
2018-10-09T02:42:52.942Z,0
2018-10-09T02:43:53.657Z,0
2018-10-09T02:44:54.374Z,0
2018-10-09T02:45:55.098Z,0
2018-10-09T02:46:55.812Z,0
2018-10-09T02:47:56.531Z,0
2018-10-09T02:48:57.244Z,0
2018-10-09T02:49:57.958Z,0
2018-10-09T02:50:58.692Z,0
2018-10-09T02:51:59.409Z,0
2018-10-09T02:53:00.181Z,0
2018-10-09T02:54:00.890Z,0
2018-10-09T02:55:01.605Z,0
2018-10-09T02:56:02.315Z,0
2018-10-09T02:57:03.027Z,0
2018-10-09T02:58:03.745Z,0
2018-10-09T02:59:04.452Z,0
2018-10-09T03:00:05.433Z,0
2018-10-09T03:01:06.167Z,0
2018-10-09T03:02:06.889Z,0
2018-10-09T03:03:07.607Z,0
2018-10-09T03:04:08.321Z,0
2018-10-09T03:05:09.045Z,0
2018-10-09T03:06:09.758Z,0
2018-10-09T03:07:10.477Z,0
2018-10-09T03:08:11.492Z,0
2018-10-09T03:09:12.205Z,0
2018-10-09T03:10:12.926Z,0
2018-10-09T03:11:13.642Z,0
2018-10-09T03:12:14.600Z,0
2018-10-09T03:13:15.326Z,0
2018-10-09T03:14:16.030Z,0
2018-10-09T03:15:16.756Z,0
2018-10-09T03:16:17.463Z,0
2018-10-09T03:17:18.176Z,0
2018-10-09T03:18:18.898Z,0
2018-10-09T03:19:19.606Z,0
2018-10-09T03:20:20.306Z,0
2018-10-09T03:21:21.018Z,0
2018-10-09T03:22:21.735Z,0
2018-10-09T03:23:22.441Z,0
2018-10-09T03:24:23.218Z,0
2018-10-09T03:25:23.924Z,0
2018-10-09T03:26:24.637Z,0
2018-10-09T03:27:25.349Z,0
2018-10-09T03:28:26.066Z,0
2018-10-09T03:29:26.791Z,0
2018-10-09T03:30:27.505Z,0
2018-10-09T03:31:28.220Z,0
2018-10-09T03:32:28.939Z,0
2018-10-09T03:33:29.654Z,0
2018-10-09T03:34:30.357Z,0
2018-10-09T03:35:31.063Z,0
2018-10-09T03:36:31.785Z,0
2018-10-09T03:37:32.516Z,0
2018-10-09T03:38:33.477Z,0
2018-10-09T03:39:34.241Z,0
2018-10-09T03:40:34.945Z,0
2018-10-09T03:41:35.671Z,0
2018-10-09T03:42:36.386Z,0
2018-10-09T03:43:37.404Z,0
2018-10-09T03:44:38.118Z,0
2018-10-09T03:45:39.077Z,0
2018-10-09T03:46:39.797Z,0
2018-10-09T03:47:40.509Z,0
2018-10-09T03:48:41.221Z,0
2018-10-09T03:49:41.931Z,0
2018-10-09T03:50:42.649Z,0
2018-10-09T03:51:43.357Z,0
2018-10-09T03:52:44.079Z,0
2018-10-09T03:53:44.783Z,0
2018-10-09T03:54:45.750Z,0
2018-10-09T03:55:46.459Z,0
2018-10-09T03:56:47.178Z,0
2018-10-09T03:57:47.896Z,0
2018-10-09T03:58:48.878Z,0
2018-10-09T03:59:49.588Z,0
2018-10-09T04:00:50.564Z,0
2018-10-09T04:01:51.282Z,0
2018-10-09T04:02:51.996Z,0
2018-10-09T04:03:52.707Z,0
2018-10-09T04:04:53.425Z,0
2018-10-09T04:05:54.196Z,0
2018-10-09T04:06:54.920Z,0
2018-10-09T04:07:55.634Z,0
2018-10-09T04:08:56.402Z,0
2018-10-09T04:09:57.343Z,0
2018-10-09T04:10:58.113Z,0
2018-10-09T04:11:58.818Z,0
2018-10-09T04:12:59.527Z,0
2018-10-09T04:14:00.282Z,0
2018-10-09T04:15:00.982Z,0
2018-10-09T04:16:01.696Z,0
2018-10-09T04:17:02.415Z,0
2018-10-09T04:18:03.132Z,0
2018-10-09T04:19:03.852Z,0
2018-10-09T04:20:04.567Z,0
2018-10-09T04:21:05.336Z,0
2018-10-09T04:22:06.049Z,0
2018-10-09T04:23:06.770Z,0
2018-10-09T04:24:07.745Z,0
2018-10-09T04:25:08.454Z,0
2018-10-09T04:26:09.174Z,0
2018-10-09T04:27:09.898Z,0
2018-10-09T04:28:10.614Z,0
2018-10-09T04:29:11.330Z,0
2018-10-09T04:30:12.044Z,0
2018-10-09T04:31:12.764Z,0
2018-10-09T04:32:13.534Z,0
2018-10-09T04:33:14.248Z,0
2018-10-09T04:34:14.950Z,0
2018-10-09T04:35:15.666Z,0
2018-10-09T04:36:16.377Z,0
2018-10-09T04:37:17.081Z,0
2018-10-09T04:38:18.044Z,0
2018-10-09T04:39:18.810Z,0
2018-10-09T04:40:19.537Z,0
2018-10-09T04:41:20.250Z,0
2018-10-09T04:42:20.957Z,0
2018-10-09T04:43:21.686Z,0
2018-10-09T04:44:22.448Z,0
2018-10-09T04:45:23.181Z,0
2018-10-09T04:46:23.891Z,0
2018-10-09T04:47:24.598Z,0
2018-10-09T04:48:25.305Z,0
2018-10-09T04:49:26.076Z,0
2018-10-09T04:50:26.800Z,0
2018-10-09T04:51:27.513Z,0
2018-10-09T04:52:28.478Z,0
2018-10-09T04:53:29.186Z,0
2018-10-09T04:54:29.901Z,0
2018-10-09T04:55:30.622Z,0
2018-10-09T04:56:31.331Z,0
2018-10-09T04:57:32.055Z,0
2018-10-09T04:58:32.770Z,0
2018-10-09T04:59:33.496Z,0
2018-10-09T05:00:34.265Z,0
2018-10-09T05:01:34.919Z,0
2018-10-09T05:02:35.879Z,0
2018-10-09T05:03:36.590Z,0
2018-10-09T05:04:37.312Z,0
2018-10-09T05:05:38.039Z,0
2018-10-09T05:06:38.764Z,0
2018-10-09T05:07:39.478Z,4
2018-10-09T05:08:40.203Z,4
2018-10-09T05:09:40.920Z,4
2018-10-09T05:10:41.625Z,4
2018-10-09T05:11:42.340Z,4
2018-10-09T05:12:43.315Z,8
2018-10-09T05:13:44.025Z,4
2018-10-09T05:14:44.741Z,8
2018-10-09T05:15:45.455Z,8
2018-10-09T05:16:46.166Z,12
2018-10-09T05:17:47.140Z,12
2018-10-09T05:18:47.843Z,16
2018-10-09T05:19:48.550Z,20
2018-10-09T05:20:49.255Z,24
2018-10-09T05:21:49.978Z,28
2018-10-09T05:22:50.741Z,36
2018-10-09T05:23:51.477Z,44
2018-10-09T05:24:52.193Z,48
2018-10-09T05:25:52.896Z,60
2018-10-09T05:26:53.857Z,68
2018-10-09T05:27:54.621Z,76
2018-10-09T05:28:55.336Z,84
2018-10-09T05:29:56.049Z,96
2018-10-09T05:30:56.826Z,108
2018-10-09T05:31:57.504Z,124
2018-10-09T05:32:58.515Z,136
2018-10-09T05:33:59.236Z,152
2018-10-09T05:34:59.970Z,168
2018-10-09T05:36:00.685Z,184
2018-10-09T05:37:01.401Z,200
2018-10-09T05:38:02.110Z,216
2018-10-09T05:39:02.822Z,232
2018-10-09T05:40:03.541Z,252
2018-10-09T05:41:04.501Z,268
2018-10-09T05:42:05.227Z,288
2018-10-09T05:43:05.942Z,312
2018-10-09T05:44:06.705Z,332
2018-10-09T05:45:07.392Z,360
2018-10-09T05:46:08.112Z,396
2018-10-09T05:47:08.837Z,428
2018-10-09T05:48:09.557Z,468
2018-10-09T05:49:10.286Z,508
2018-10-09T05:50:11.015Z,556
2018-10-09T05:51:11.741Z,600
2018-10-09T05:52:12.461Z,644
2018-10-09T05:53:13.180Z,696
2018-10-09T05:54:13.941Z,744
2018-10-09T05:55:14.690Z,796
2018-10-09T05:56:15.414Z,844
2018-10-09T05:57:16.137Z,892
2018-10-09T05:58:16.869Z,940
2018-10-09T05:59:17.571Z,1008
2018-10-09T06:00:18.306Z,1072
2018-10-09T06:01:19.018Z,1144
2018-10-09T06:02:19.748Z,1232
2018-10-09T06:03:20.467Z,1324
2018-10-09T06:04:21.190Z,1412
2018-10-09T06:05:21.899Z,1492
2018-10-09T06:06:22.620Z,1572
2018-10-09T06:07:23.329Z,1660
2018-10-09T06:08:24.056Z,1752
2018-10-09T06:09:24.780Z,1832
2018-10-09T06:10:25.503Z,1904
2018-10-09T06:11:26.218Z,1980
2018-10-09T06:12:26.949Z,2080
2018-10-09T06:13:27.919Z,2164
2018-10-09T06:14:28.646Z,2236
2018-10-09T06:15:29.396Z,2320
2018-10-09T06:16:30.129Z,2416
2018-10-09T06:17:30.848Z,2516
2018-10-09T06:18:31.815Z,2632
2018-10-09T06:19:32.535Z,2744
2018-10-09T06:20:33.251Z,2856
2018-10-09T06:21:33.973Z,2988
2018-10-09T06:22:34.685Z,3148
2018-10-09T06:23:35.412Z,3344
2018-10-09T06:24:36.148Z,3552
2018-10-09T06:25:36.861Z,3760
2018-10-09T06:26:37.574Z,3944
2018-10-09T06:27:38.315Z,4140
2018-10-09T06:28:39.036Z,4312
2018-10-09T06:29:39.756Z,4460
2018-10-09T06:30:40.475Z,4628
2018-10-09T06:31:41.199Z,4820
2018-10-09T06:32:41.920Z,4980
2018-10-09T06:33:42.653Z,5072
2018-10-09T06:34:43.371Z,5144
2018-10-09T06:35:44.105Z,5164
2018-10-09T06:36:44.832Z,5064
2018-10-09T06:37:45.569Z,4892
2018-10-09T06:38:46.330Z,4716
2018-10-09T06:39:47.028Z,4604
2018-10-09T06:40:47.780Z,4520
2018-10-09T06:41:48.561Z,4472
2018-10-09T06:42:49.427Z,4440
2018-10-09T06:43:50.074Z,4448
2018-10-09T06:44:51.048Z,4496
2018-10-09T06:45:51.767Z,4536
2018-10-09T06:46:52.494Z,4592
2018-10-09T06:47:53.220Z,4676
2018-10-09T06:48:53.930Z,4800
2018-10-09T06:49:54.657Z,4940
2018-10-09T06:50:55.377Z,5136
2018-10-09T06:51:56.096Z,5420
2018-10-09T06:52:57.061Z,5764
2018-10-09T06:53:58.025Z,6172
2018-10-09T06:54:58.573Z,6652
2018-10-09T06:55:59.246Z,7040
2018-10-09T06:56:59.969Z,7228
2018-10-09T06:58:00.709Z,7260
2018-10-09T06:59:01.422Z,7404
2018-10-09T07:00:02.244Z,7476
2018-10-09T07:01:02.878Z,7460
2018-10-09T07:02:03.607Z,7476
2018-10-09T07:03:04.582Z,7540
2018-10-09T07:05:06.993Z,7896
2018-10-09T07:06:07.730Z,8120
2018-10-09T07:07:08.465Z,8332
2018-10-09T07:08:09.402Z,8460
2018-10-09T07:09:10.117Z,8480
2018-10-09T07:10:10.839Z,8368
2018-10-09T07:11:11.642Z,8192
2018-10-09T07:12:12.326Z,7980
2018-10-09T07:13:13.100Z,7792
2018-10-09T07:14:13.822Z,7652
2018-10-09T07:15:14.544Z,7576
2018-10-09T07:16:15.270Z,7624
2018-10-09T07:17:15.993Z,7748
2018-10-09T07:18:16.967Z,7844
2018-10-09T07:19:17.697Z,7828
2018-10-09T07:20:18.414Z,7784
2018-10-09T07:21:19.128Z,7704
2018-10-09T07:22:19.858Z,7532
2018-10-09T07:23:20.643Z,7336
2018-10-09T07:24:21.344Z,7132
2018-10-09T07:25:22.091Z,6944
2018-10-09T07:26:22.823Z,6836
2018-10-09T07:27:23.538Z,6856
2018-10-09T07:28:24.280Z,6876
2018-10-09T07:29:25.001Z,6844
2018-10-09T07:30:25.736Z,6880
2018-10-09T07:31:26.456Z,6836
2018-10-09T07:32:27.171Z,6912
2018-10-09T07:33:27.887Z,7048
2018-10-09T07:34:28.601Z,7156
2018-10-09T07:35:29.341Z,7192
2018-10-09T07:36:30.053Z,7328
2018-10-09T07:37:31.068Z,7452
2018-10-09T07:38:31.759Z,7428
2018-10-09T07:39:32.484Z,7468
2018-10-09T07:40:33.495Z,7460
2018-10-09T07:41:34.220Z,7524
2018-10-09T07:42:34.945Z,7740
2018-10-09T07:43:35.685Z,7968
2018-10-09T07:44:36.399Z,7964
2018-10-09T07:45:37.170Z,7824
2018-10-09T07:46:37.884Z,7708
2018-10-09T07:47:38.598Z,7780
2018-10-09T07:48:39.329Z,8084
2018-10-09T07:49:40.055Z,8440
2018-10-09T07:50:40.775Z,8528
2018-10-09T07:51:41.500Z,8528
2018-10-09T07:52:42.274Z,8464
2018-10-09T07:53:42.959Z,8380
2018-10-09T07:54:43.674Z,8408
2018-10-09T07:55:44.401Z,8848
2018-10-09T07:56:45.114Z,9268
2018-10-09T07:57:45.894Z,9604
2018-10-09T07:58:46.675Z,9972
2018-10-09T07:59:47.338Z,10596
2018-10-09T08:00:48.069Z,11100
2018-10-09T08:01:48.798Z,11272
2018-10-09T08:02:49.575Z,11508
2018-10-09T08:03:50.308Z,11800
2018-10-09T08:04:51.075Z,11784
2018-10-09T08:05:51.767Z,11992
2018-10-09T08:06:52.493Z,12516
2018-10-09T08:07:53.237Z,12692
2018-10-09T08:08:53.965Z,13060
2018-10-09T08:09:54.686Z,14596
2018-10-09T08:10:55.431Z,14704
2018-10-09T08:11:56.141Z,15368
2018-10-09T08:12:57.126Z,17856
2018-10-09T08:13:57.863Z,16864
2018-10-09T08:14:58.575Z,18656
2018-10-09T08:15:59.317Z,19456
2018-10-09T08:17:00.035Z,20448
2018-10-09T08:18:00.762Z,19936
2018-10-09T08:19:01.495Z,17664
2018-10-09T08:20:02.225Z,17184
2018-10-09T08:21:02.944Z,17856
2018-10-09T08:22:03.682Z,19744
2018-10-09T08:23:04.413Z,21728
2018-10-09T08:24:05.407Z,23040
2018-10-09T08:25:06.190Z,21792
2018-10-09T08:26:06.915Z,19616
2018-10-09T08:27:07.642Z,19584
2018-10-09T08:28:08.409Z,22304
2018-10-09T08:29:09.120Z,11696
2018-10-09T08:30:09.891Z,9664
2018-10-09T08:31:10.618Z,12836
2018-10-09T08:32:11.369Z,13460
2018-10-09T08:33:12.085Z,14112
2018-10-09T08:34:12.804Z,14340
2018-10-09T08:35:13.534Z,15484
2018-10-09T08:36:14.259Z,17664
2018-10-09T08:37:14.984Z,20288
2018-10-09T08:38:15.718Z,22144
2018-10-09T08:39:16.451Z,24736
2018-10-09T08:40:17.290Z,26528
2018-10-09T08:41:17.952Z,25120
2018-10-09T08:42:18.683Z,25664
2018-10-09T08:43:19.414Z,28256
2018-10-09T08:44:20.140Z,26336
2018-10-09T08:45:20.872Z,24672
2018-10-09T08:46:21.691Z,23328
2018-10-09T08:47:22.332Z,24448
2018-10-09T08:48:23.061Z,25472
2018-10-09T08:49:23.808Z,25952
2018-10-09T08:50:24.783Z,26432
2018-10-09T08:51:25.519Z,26784
2018-10-09T08:52:26.553Z,27616
2018-10-09T08:53:27.281Z,29120
2018-10-09T08:54:28.011Z,30656
2018-10-09T08:55:28.742Z,30304
2018-10-09T08:56:29.465Z,28960
2018-10-09T08:57:30.289Z,29120
2018-10-09T08:58:30.992Z,30528
2018-10-09T08:59:31.728Z,32256
2018-10-09T09:00:32.460Z,33312
2018-10-09T09:01:33.436Z,32352
2018-10-09T09:02:34.221Z,30208
2018-10-09T09:03:34.987Z,30560
2018-10-09T09:04:35.699Z,31968
2018-10-09T09:05:36.426Z,32256
2018-10-09T09:06:37.166Z,32832
2018-10-09T09:07:37.907Z,33056
2018-10-09T09:08:38.630Z,29696
2018-10-09T09:09:39.380Z,26624
2018-10-09T09:10:40.351Z,27776
2018-10-09T09:11:41.066Z,29600
2018-10-09T09:12:41.848Z,27072
2018-10-09T09:13:42.589Z,32480
2018-10-09T09:14:43.315Z,31072
2018-10-09T09:15:44.293Z,31936
2018-10-09T09:16:45.020Z,35296
2018-10-09T09:17:45.816Z,35200
2018-10-09T09:18:46.545Z,33920
2018-10-09T09:19:47.322Z,33408
2018-10-09T09:20:48.098Z,33664
2018-10-09T09:21:48.788Z,34496
2018-10-09T09:22:49.563Z,35072
2018-10-09T09:23:50.318Z,36096
2018-10-09T09:24:51.063Z,38048
2018-10-09T09:25:51.792Z,38176
2018-10-09T09:26:52.549Z,37664
2018-10-09T09:27:53.316Z,36064
2018-10-09T09:28:53.987Z,36096
2018-10-09T09:29:54.725Z,36512
2018-10-09T09:30:55.448Z,36512
2018-10-09T09:31:56.177Z,36832
2018-10-09T09:32:56.939Z,37120
2018-10-09T09:33:57.645Z,36352
2018-10-09T09:34:58.410Z,34880
2018-10-09T09:35:59.143Z,34688
2018-10-09T09:36:59.891Z,35008
2018-10-09T09:38:00.616Z,35904
2018-10-09T09:39:01.386Z,36192
2018-10-09T09:40:02.416Z,35872
2018-10-09T09:41:03.145Z,36224
2018-10-09T09:42:04.662Z,36736
2018-10-09T09:43:05.439Z,39296
2018-10-09T09:44:06.325Z,40960
2018-10-09T09:45:07.067Z,41024
2018-10-09T09:46:07.822Z,40096
2018-10-09T09:47:08.535Z,39488
2018-10-09T09:48:09.572Z,38912
2018-10-09T09:49:10.306Z,37792
2018-10-09T09:50:11.296Z,36096
2018-10-09T09:51:12.015Z,36832
2018-10-09T09:52:12.791Z,37536
2018-10-09T09:53:13.505Z,37984
2018-10-09T09:54:14.550Z,35776
2018-10-09T09:55:15.289Z,35360
2018-10-09T09:56:16.018Z,37504
2018-10-09T09:57:16.770Z,37888
2018-10-09T09:58:17.596Z,33568
2018-10-09T09:59:18.273Z,30368
2018-10-09T10:00:19.003Z,32992
2018-10-09T10:01:19.748Z,37888
2018-10-09T10:02:20.465Z,39936
2018-10-09T10:03:21.202Z,34304
2018-10-09T10:04:21.930Z,32000
2018-10-09T10:05:22.672Z,34336
2018-10-09T10:06:23.426Z,36864
2018-10-09T10:07:24.168Z,37184
2018-10-09T10:08:24.900Z,37824
2018-10-09T10:09:25.765Z,40288
2018-10-09T10:10:26.367Z,41536
2018-10-09T10:11:27.102Z,39808
2018-10-09T10:12:28.093Z,38656
2018-10-09T10:13:29.086Z,38880
2018-10-09T10:14:29.825Z,23616
2018-10-09T10:15:30.560Z,22464
2018-10-09T10:16:31.291Z,23552
2018-10-09T10:17:32.032Z,26432
2018-10-09T10:18:32.781Z,23680
2018-10-09T10:19:33.497Z,21216
2018-10-09T10:20:34.478Z,22624
2018-10-09T10:21:35.473Z,24224
2018-10-09T10:22:36.264Z,20512
2018-10-09T10:23:36.988Z,16448
2018-10-09T10:24:37.970Z,15760
2018-10-09T10:25:38.709Z,15440
2018-10-09T10:26:39.446Z,21888
2018-10-09T10:27:40.184Z,22560
2018-10-09T10:28:40.923Z,18016
2018-10-09T10:29:41.650Z,20256
2018-10-09T10:30:42.375Z,20832
2018-10-09T10:31:43.378Z,21760
2018-10-09T10:32:44.099Z,21696
2018-10-09T10:33:44.846Z,21632
2018-10-09T10:34:45.571Z,25120
2018-10-09T10:35:46.398Z,43712
2018-10-09T10:36:47.086Z,51200
2018-10-09T10:37:47.855Z,52000
2018-10-09T10:38:48.575Z,50400
2018-10-09T10:39:49.603Z,48224
2018-10-09T10:40:50.334Z,47968
2018-10-09T10:41:51.063Z,48032
2018-10-09T10:42:52.136Z,46624
2018-10-09T10:43:53.142Z,48320
2018-10-09T10:44:53.871Z,51392
2018-10-09T10:45:54.607Z,42976
2018-10-09T10:46:55.632Z,41504
2018-10-09T10:47:56.346Z,38528
2018-10-09T10:48:57.337Z,36384
2018-10-09T10:49:58.059Z,37120
2018-10-09T10:50:59.418Z,34368
2018-10-09T10:52:00.232Z,30944
2018-10-09T10:53:01.004Z,27456
2018-10-09T10:54:01.869Z,24352
2018-10-09T10:55:02.988Z,21952
2018-10-09T10:56:03.690Z,19200
2018-10-09T10:57:04.460Z,19552
2018-10-09T10:58:05.194Z,19840
2018-10-09T10:59:05.927Z,20576
2018-10-09T11:00:06.689Z,21088
2018-10-09T11:01:07.418Z,20128
2018-10-09T11:02:08.154Z,20320
2018-10-09T11:03:08.897Z,19552
2018-10-09T11:04:09.629Z,19008
2018-10-09T11:05:10.360Z,19584
2018-10-09T11:06:11.113Z,19264
2018-10-09T11:07:11.893Z,19488
2018-10-09T11:08:12.644Z,19808
2018-10-09T11:09:13.345Z,20576
2018-10-09T11:10:14.109Z,20352
2018-10-09T11:11:14.847Z,20032
2018-10-09T11:12:15.590Z,20224
2018-10-09T11:13:16.316Z,20672
2018-10-09T11:14:17.064Z,21632
2018-10-09T11:15:17.808Z,22048
2018-10-09T11:16:18.554Z,23008
2018-10-09T11:17:19.390Z,24096
2018-10-09T11:18:20.137Z,25472
2018-10-09T11:19:20.866Z,25344
2018-10-09T11:20:21.604Z,24160
2018-10-09T11:21:22.425Z,25696
2018-10-09T11:22:23.097Z,25408
2018-10-09T11:23:23.827Z,24032
2018-10-09T11:24:24.595Z,22368
2018-10-09T11:25:25.587Z,21696
2018-10-09T11:26:26.326Z,20032
2018-10-09T11:27:27.069Z,20608
2018-10-09T11:28:27.816Z,23712
2018-10-09T11:29:28.876Z,23296
2018-10-09T11:30:29.603Z,24576
2018-10-09T11:31:30.339Z,23392
2018-10-09T11:32:31.090Z,21952
2018-10-09T11:33:31.819Z,19968
2018-10-09T11:34:32.878Z,18624
2018-10-09T11:35:33.605Z,18048
2018-10-09T11:36:34.336Z,17952
2018-10-09T11:37:35.081Z,18272
2018-10-09T11:38:36.088Z,18208
2018-10-09T11:39:36.860Z,17484
2018-10-09T11:40:37.590Z,17124
2018-10-09T11:41:38.327Z,16916
2018-10-09T11:42:39.088Z,17392
2018-10-09T11:43:39.799Z,18208
2018-10-09T11:44:40.526Z,17760
2018-10-09T11:45:41.266Z,17184
2018-10-09T11:46:42.000Z,17616
2018-10-09T11:47:42.743Z,17496
2018-10-09T11:48:43.720Z,17212
2018-10-09T11:49:44.511Z,16464
2018-10-09T11:50:45.246Z,15724
2018-10-09T11:51:45.970Z,15404
2018-10-09T11:52:46.701Z,15084
2018-10-09T11:53:47.426Z,15024
2018-10-09T11:54:48.160Z,14256
2018-10-09T11:55:48.897Z,14112
2018-10-09T11:56:49.675Z,14532
2018-10-09T11:57:50.413Z,16236
2018-10-09T11:58:51.200Z,16092
2018-10-09T11:59:51.880Z,15776
2018-10-09T12:00:52.617Z,15228
2018-10-09T12:01:53.356Z,15384
2018-10-09T12:02:54.196Z,18560
2018-10-09T12:03:54.839Z,23232
2018-10-09T12:04:55.586Z,18784
2018-10-09T12:05:56.332Z,18144
2018-10-09T12:06:57.076Z,17348
2018-10-09T12:07:57.811Z,18176
2018-10-09T12:08:58.573Z,18560
2018-10-09T12:09:59.294Z,18080
2018-10-09T12:11:00.022Z,16972
2018-10-09T12:12:00.759Z,16888
2018-10-09T12:13:01.497Z,19744
2018-10-09T12:14:02.284Z,21216
2018-10-09T12:15:02.988Z,18752
2018-10-09T12:16:03.984Z,18560
2018-10-09T12:17:04.728Z,18336
2018-10-09T12:18:05.463Z,18560
2018-10-09T12:19:06.203Z,17044
2018-10-09T12:20:06.948Z,15852
2018-10-09T12:21:07.677Z,17152
2018-10-09T12:22:08.413Z,18816
2018-10-09T12:23:09.153Z,20416
2018-10-09T12:24:09.878Z,22528
2018-10-09T12:25:10.630Z,24672
2018-10-09T12:26:11.608Z,25472
2018-10-09T12:27:12.428Z,26400
2018-10-09T12:28:13.066Z,23680
2018-10-09T12:29:13.798Z,19104
2018-10-09T12:30:14.531Z,15176
2018-10-09T12:31:15.281Z,13580
2018-10-09T12:32:16.025Z,10968
2018-10-09T12:33:17.011Z,11056
2018-10-09T12:34:17.756Z,13136
2018-10-09T12:35:18.483Z,14388
2018-10-09T12:36:19.231Z,15460
2018-10-09T12:37:19.964Z,17728
2018-10-09T12:38:20.727Z,15964
2018-10-09T12:39:21.433Z,14456
2018-10-09T12:40:22.166Z,17300
2018-10-09T12:41:22.901Z,15224
2018-10-09T12:42:23.699Z,12512
2018-10-09T12:43:24.437Z,11760
2018-10-09T12:44:25.215Z,11772
2018-10-09T12:45:25.899Z,11620
2018-10-09T12:46:26.624Z,11656
2018-10-09T12:47:27.416Z,11748
2018-10-09T12:48:28.156Z,11788
2018-10-09T12:49:28.882Z,10484
2018-10-09T12:50:29.623Z,9412
2018-10-09T12:51:30.353Z,8820
2018-10-09T12:52:31.082Z,9068
2018-10-09T12:53:31.815Z,8876
2018-10-09T12:54:32.567Z,9556
2018-10-09T12:55:33.295Z,10268
2018-10-09T12:56:34.029Z,9488
2018-10-09T12:57:34.774Z,9132
2018-10-09T12:58:35.581Z,9064
2018-10-09T12:59:36.240Z,9148
2018-10-09T13:00:36.984Z,9580
2018-10-09T13:01:37.724Z,10428
2018-10-09T13:02:38.722Z,11200
2018-10-09T13:03:39.451Z,11796
2018-10-09T13:04:40.187Z,10588
2018-10-09T13:05:40.917Z,9824
2018-10-09T13:06:41.913Z,10120
2018-10-09T13:07:42.685Z,10024
2018-10-09T13:08:43.417Z,9848
2018-10-09T13:09:44.166Z,9924
2018-10-09T13:10:44.887Z,10324
2018-10-09T13:11:45.620Z,12612
2018-10-09T13:12:46.346Z,12176
2018-10-09T13:13:47.080Z,9952
2018-10-09T13:14:47.857Z,9408
2018-10-09T13:15:48.579Z,9444
2018-10-09T13:16:49.336Z,9352
2018-10-09T13:17:50.062Z,9220
2018-10-09T13:18:50.816Z,9464
2018-10-09T13:19:51.588Z,9316
2018-10-09T13:20:52.426Z,9188
2018-10-09T13:21:53.158Z,8872
2018-10-09T13:22:53.821Z,8852
2018-10-09T13:23:54.535Z,8760
2018-10-09T13:24:55.573Z,8556
2018-10-09T13:25:56.561Z,8396
2018-10-09T13:26:57.349Z,8228
2018-10-09T13:27:58.039Z,8012
2018-10-09T13:28:59.185Z,7736
2018-10-09T13:29:59.987Z,7488
2018-10-09T13:31:00.774Z,7316
2018-10-09T13:32:01.472Z,7328
2018-10-09T13:33:02.201Z,7396
2018-10-09T13:34:02.964Z,7452
2018-10-09T13:35:03.674Z,7528
2018-10-09T13:36:04.413Z,7532
2018-10-09T13:37:05.151Z,7600
2018-10-09T13:38:05.944Z,7804
2018-10-09T13:39:06.635Z,7756
2018-10-09T13:40:07.641Z,7600
2018-10-09T13:41:08.411Z,7692
2018-10-09T13:42:09.089Z,7688
2018-10-09T13:43:09.829Z,7792
2018-10-09T13:44:10.681Z,7936
2018-10-09T13:45:11.309Z,7992
2018-10-09T13:46:12.037Z,8352
2018-10-09T13:47:12.810Z,8420
2018-10-09T13:48:13.516Z,8308
2018-10-09T13:49:14.248Z,8376
2018-10-09T13:50:14.992Z,8308
2018-10-09T13:51:15.715Z,8544
2018-10-09T13:52:16.437Z,8684
2018-10-09T13:53:17.186Z,8720